sensor_id;sensor_type;location;lat;lon;timestamp;temperature;humidity
22491;DHT22;11412;50.802;4.350;2022-10-18T00:01:11;15.90;99.90
22491;DHT22;11412;50.802;4.350;2022-10-18T00:03:36;15.90;99.90
22491;DHT22;11412;50.802;4.350;2022-10-18T00:06:03;15.90;99.90
22491;DHT22;11412;50.802;4.350;2022-10-18T00:08:29;15.90;99.90
22491;DHT22;11412;50.802;4.350;2022-10-18T00:10:55;16.00;99.90
22491;DHT22;11412;50.802;4.350;2022-10-18T00:13:21;15.90;99.90
22491;DHT22;11412;50.802;4.350;2022-10-18T00:15:53;15.90;99.90
22491;DHT22;11412;50.802;4.350;2022-10-18T00:18:20;15.90;99.90
22491;DHT22;11412;50.802;4.350;2022-10-18T00:21:09;15.90;99.90
22491;DHT22;11412;50.802;4.350;2022-10-18T00:23:35;15.80;99.90
22491;DHT22;11412;50.802;4.350;2022-10-18T00:26:10;15.90;99.90
22491;DHT22;11412;50.802;4.350;2022-10-18T00:28:37;15.90;99.90
22491;DHT22;11412;50.802;4.350;2022-10-18T00:31:11;15.90;99.90
22491;DHT22;11412;50.802;4.350;2022-10-18T00:33:37;15.90;99.90
22491;DHT22;11412;50.802;4.350;2022-10-18T00:36:03;16.00;99.90
22491;DHT22;11412;50.802;4.350;2022-10-18T00:38:29;15.90;99.90
22491;DHT22;11412;50.802;4.350;2022-10-18T00:40:55;16.00;99.90
22491;DHT22;11412;50.802;4.350;2022-10-18T00:43:20;15.90;99.90
22491;DHT22;11412;50.802;4.350;2022-10-18T00:45:46;16.00;99.90
22491;DHT22;11412;50.802;4.350;2022-10-18T00:48:13;16.00;99.90
22491;DHT22;11412;50.802;4.350;2022-10-18T00:50:41;16.00;99.90
22491;DHT22;11412;50.802;4.350;2022-10-18T00:53:20;16.00;99.90
22491;DHT22;11412;50.802;4.350;2022-10-18T00:55:47;15.90;99.90
22491;DHT22;11412;50.802;4.350;2022-10-18T00:58:15;15.90;99.90
22491;DHT22;11412;50.802;4.350;2022-10-18T01:00:41;15.90;99.90
22491;DHT22;11412;50.802;4.350;2022-10-18T01:03:08;15.90;99.90
22491;DHT22;11412;50.802;4.350;2022-10-18T01:05:39;15.90;99.90
22491;DHT22;11412;50.802;4.350;2022-10-18T01:08:10;15.90;99.90
22491;DHT22;11412;50.802;4.350;2022-10-18T01:11:19;15.90;99.90
22491;DHT22;11412;50.802;4.350;2022-10-18T01:16:44;15.90;99.90
22491;DHT22;11412;50.802;4.350;2022-10-18T01:21:54;15.80;99.90
22491;DHT22;11412;50.802;4.350;2022-10-18T01:32:59;15.90;99.90
22491;DHT22;11412;50.802;4.350;2022-10-18T01:35:34;15.90;99.90
22491;DHT22;11412;50.802;4.350;2022-10-18T01:38:02;15.90;99.90
22491;DHT22;11412;50.802;4.350;2022-10-18T01:40:30;15.90;99.90
22491;DHT22;11412;50.802;4.350;2022-10-18T01:42:56;15.90;99.90
22491;DHT22;11412;50.802;4.350;2022-10-18T01:45:24;15.80;99.90
22491;DHT22;11412;50.802;4.350;2022-10-18T01:47:51;15.80;99.90
22491;DHT22;11412;50.802;4.350;2022-10-18T01:50:30;15.80;99.90
22491;DHT22;11412;50.802;4.350;2022-10-18T01:52:56;15.80;99.90
22491;DHT22;11412;50.802;4.350;2022-10-18T01:55:29;15.80;99.90
22491;DHT22;11412;50.802;4.350;2022-10-18T02:00:39;15.80;99.90
22491;DHT22;11412;50.802;4.350;2022-10-18T02:05:58;15.70;99.90
22491;DHT22;11412;50.802;4.350;2022-10-18T02:08:27;15.70;99.90
22491;DHT22;11412;50.802;4.350;2022-10-18T02:11:03;15.70;99.90
22491;DHT22;11412;50.802;4.350;2022-10-18T02:13:53;15.70;99.90
22491;DHT22;11412;50.802;4.350;2022-10-18T02:16:27;15.70;99.90
22491;DHT22;11412;50.802;4.350;2022-10-18T02:19:05;15.70;99.90
22491;DHT22;11412;50.802;4.350;2022-10-18T02:21:33;15.70;99.90
22491;DHT22;11412;50.802;4.350;2022-10-18T02:24:01;15.70;99.90
22491;DHT22;11412;50.802;4.350;2022-10-18T02:26:28;15.70;99.90
22491;DHT22;11412;50.802;4.350;2022-10-18T02:28:54;15.80;99.90
22491;DHT22;11412;50.802;4.350;2022-10-18T02:31:36;15.70;99.90
22491;DHT22;11412;50.802;4.350;2022-10-18T02:34:18;15.70;99.90
22491;DHT22;11412;50.802;4.350;2022-10-18T02:36:53;15.70;99.90
22491;DHT22;11412;50.802;4.350;2022-10-18T02:39:25;15.80;99.90
22491;DHT22;11412;50.802;4.350;2022-10-18T02:41:53;15.70;99.90
22491;DHT22;11412;50.802;4.350;2022-10-18T02:44:19;15.70;99.90
22491;DHT22;11412;50.802;4.350;2022-10-18T02:46:45;15.70;99.90
22491;DHT22;11412;50.802;4.350;2022-10-18T02:49:11;15.80;99.90
22491;DHT22;11412;50.802;4.350;2022-10-18T02:51:36;15.70;99.90
22491;DHT22;11412;50.802;4.350;2022-10-18T02:54:02;15.80;99.90
22491;DHT22;11412;50.802;4.350;2022-10-18T02:56:28;15.80;99.90
22491;DHT22;11412;50.802;4.350;2022-10-18T02:58:53;15.80;99.90
22491;DHT22;11412;50.802;4.350;2022-10-18T03:01:19;15.80;99.90
22491;DHT22;11412;50.802;4.350;2022-10-18T03:03:45;15.80;99.90
22491;DHT22;11412;50.802;4.350;2022-10-18T03:06:11;15.70;99.90
22491;DHT22;11412;50.802;4.350;2022-10-18T03:08:36;15.80;99.90
22491;DHT22;11412;50.802;4.350;2022-10-18T03:11:02;15.80;99.90
22491;DHT22;11412;50.802;4.350;2022-10-18T03:13:28;15.80;99.90
22491;DHT22;11412;50.802;4.350;2022-10-18T03:15:53;15.80;99.90
22491;DHT22;11412;50.802;4.350;2022-10-18T03:18:19;15.80;99.90
22491;DHT22;11412;50.802;4.350;2022-10-18T03:20:45;15.80;99.90
22491;DHT22;11412;50.802;4.350;2022-10-18T03:23:11;15.80;99.90
22491;DHT22;11412;50.802;4.350;2022-10-18T03:25:36;15.80;99.90
22491;DHT22;11412;50.802;4.350;2022-10-18T03:28:02;15.80;99.90
22491;DHT22;11412;50.802;4.350;2022-10-18T03:30:28;15.80;99.90
22491;DHT22;11412;50.802;4.350;2022-10-18T03:32:53;16.00;99.90
22491;DHT22;11412;50.802;4.350;2022-10-18T03:35:19;15.90;99.90
22491;DHT22;11412;50.802;4.350;2022-10-18T03:37:44;15.90;99.90
22491;DHT22;11412;50.802;4.350;2022-10-18T03:40:10;15.90;99.90
22491;DHT22;11412;50.802;4.350;2022-10-18T03:42:36;15.90;99.90
22491;DHT22;11412;50.802;4.350;2022-10-18T03:45:02;15.80;99.90
22491;DHT22;11412;50.802;4.350;2022-10-18T03:47:27;15.80;99.90
22491;DHT22;11412;50.802;4.350;2022-10-18T03:49:53;15.80;99.90
22491;DHT22;11412;50.802;4.350;2022-10-18T03:52:18;15.90;99.90
22491;DHT22;11412;50.802;4.350;2022-10-18T03:54:44;15.90;99.90
22491;DHT22;11412;50.802;4.350;2022-10-18T03:57:10;15.90;99.90
22491;DHT22;11412;50.802;4.350;2022-10-18T03:59:35;15.90;99.90
22491;DHT22;11412;50.802;4.350;2022-10-18T04:02:01;16.00;99.90
22491;DHT22;11412;50.802;4.350;2022-10-18T04:04:26;15.90;99.90
22491;DHT22;11412;50.802;4.350;2022-10-18T04:06:53;15.90;99.90
22491;DHT22;11412;50.802;4.350;2022-10-18T04:09:18;15.90;99.90
22491;DHT22;11412;50.802;4.350;2022-10-18T04:11:44;15.90;99.90
22491;DHT22;11412;50.802;4.350;2022-10-18T04:14:09;15.90;99.90
22491;DHT22;11412;50.802;4.350;2022-10-18T04:16:35;15.90;99.90
22491;DHT22;11412;50.802;4.350;2022-10-18T04:19:01;16.00;99.90
22491;DHT22;11412;50.802;4.350;2022-10-18T04:21:26;15.90;99.90
22491;DHT22;11412;50.802;4.350;2022-10-18T04:23:52;15.90;99.90
22491;DHT22;11412;50.802;4.350;2022-10-18T04:26:18;15.90;99.90
22491;DHT22;11412;50.802;4.350;2022-10-18T04:28:43;15.90;99.90
22491;DHT22;11412;50.802;4.350;2022-10-18T04:31:10;16.00;99.90
22491;DHT22;11412;50.802;4.350;2022-10-18T04:33:35;16.00;99.90
22491;DHT22;11412;50.802;4.350;2022-10-18T04:36:01;16.00;99.90
22491;DHT22;11412;50.802;4.350;2022-10-18T04:38:27;16.00;99.90
22491;DHT22;11412;50.802;4.350;2022-10-18T04:40:53;16.00;99.90
22491;DHT22;11412;50.802;4.350;2022-10-18T04:43:20;16.00;99.90
22491;DHT22;11412;50.802;4.350;2022-10-18T04:45:46;15.90;99.90
22491;DHT22;11412;50.802;4.350;2022-10-18T04:48:13;16.00;99.90
22491;DHT22;11412;50.802;4.350;2022-10-18T04:50:39;16.00;99.90
22491;DHT22;11412;50.802;4.350;2022-10-18T04:53:04;15.90;99.90
22491;DHT22;11412;50.802;4.350;2022-10-18T04:55:30;15.90;99.90
22491;DHT22;11412;50.802;4.350;2022-10-18T04:57:56;15.90;99.90
22491;DHT22;11412;50.802;4.350;2022-10-18T05:00:21;15.90;99.90
22491;DHT22;11412;50.802;4.350;2022-10-18T05:02:47;15.90;99.90
22491;DHT22;11412;50.802;4.350;2022-10-18T05:05:13;15.90;99.90
22491;DHT22;11412;50.802;4.350;2022-10-18T05:07:38;15.90;99.90
22491;DHT22;11412;50.802;4.350;2022-10-18T05:10:04;15.90;99.90
22491;DHT22;11412;50.802;4.350;2022-10-18T05:12:30;15.80;99.90
22491;DHT22;11412;50.802;4.350;2022-10-18T05:14:55;15.90;99.90
22491;DHT22;11412;50.802;4.350;2022-10-18T05:17:21;15.90;99.90
22491;DHT22;11412;50.802;4.350;2022-10-18T05:19:46;15.90;99.90
22491;DHT22;11412;50.802;4.350;2022-10-18T05:22:12;15.90;99.90
22491;DHT22;11412;50.802;4.350;2022-10-18T05:24:38;15.90;99.90
22491;DHT22;11412;50.802;4.350;2022-10-18T05:27:03;15.90;99.90
22491;DHT22;11412;50.802;4.350;2022-10-18T05:29:29;16.00;99.90
22491;DHT22;11412;50.802;4.350;2022-10-18T05:31:55;16.00;99.90
22491;DHT22;11412;50.802;4.350;2022-10-18T05:34:20;15.90;99.90
22491;DHT22;11412;50.802;4.350;2022-10-18T05:36:46;15.80;99.90
22491;DHT22;11412;50.802;4.350;2022-10-18T05:39:14;15.80;99.90
22491;DHT22;11412;50.802;4.350;2022-10-18T05:41:39;15.90;99.90
22491;DHT22;11412;50.802;4.350;2022-10-18T05:44:05;15.80;99.90
22491;DHT22;11412;50.802;4.350;2022-10-18T05:46:32;15.80;99.90
22491;DHT22;11412;50.802;4.350;2022-10-18T05:48:57;15.70;99.90
22491;DHT22;11412;50.802;4.350;2022-10-18T05:51:23;15.70;99.90
22491;DHT22;11412;50.802;4.350;2022-10-18T05:53:49;15.70;99.90
22491;DHT22;11412;50.802;4.350;2022-10-18T05:56:14;15.70;99.90
22491;DHT22;11412;50.802;4.350;2022-10-18T05:58:41;15.60;99.90
22491;DHT22;11412;50.802;4.350;2022-10-18T06:01:07;15.60;99.90
22491;DHT22;11412;50.802;4.350;2022-10-18T06:03:34;15.50;99.90
22491;DHT22;11412;50.802;4.350;2022-10-18T06:06:05;15.40;99.90
22491;DHT22;11412;50.802;4.350;2022-10-18T06:08:31;15.40;99.90
22491;DHT22;11412;50.802;4.350;2022-10-18T06:10:57;15.30;99.90
22491;DHT22;11412;50.802;4.350;2022-10-18T06:13:22;15.30;99.90
22491;DHT22;11412;50.802;4.350;2022-10-18T06:15:48;15.40;99.90
22491;DHT22;11412;50.802;4.350;2022-10-18T06:18:14;15.40;99.90
22491;DHT22;11412;50.802;4.350;2022-10-18T06:20:40;15.40;99.90
22491;DHT22;11412;50.802;4.350;2022-10-18T06:23:05;15.40;99.90
22491;DHT22;11412;50.802;4.350;2022-10-18T06:25:31;15.30;99.90
22491;DHT22;11412;50.802;4.350;2022-10-18T06:27:57;15.30;99.90
22491;DHT22;11412;50.802;4.350;2022-10-18T06:30:22;15.30;99.90
22491;DHT22;11412;50.802;4.350;2022-10-18T06:32:48;15.30;99.90
22491;DHT22;11412;50.802;4.350;2022-10-18T06:35:14;15.40;99.90
22491;DHT22;11412;50.802;4.350;2022-10-18T06:37:39;15.30;99.90
22491;DHT22;11412;50.802;4.350;2022-10-18T06:40:05;15.30;99.90
22491;DHT22;11412;50.802;4.350;2022-10-18T06:42:31;15.20;99.90
22491;DHT22;11412;50.802;4.350;2022-10-18T06:44:57;15.20;99.90
22491;DHT22;11412;50.802;4.350;2022-10-18T06:47:23;15.30;99.90
22491;DHT22;11412;50.802;4.350;2022-10-18T06:49:48;15.30;99.90
22491;DHT22;11412;50.802;4.350;2022-10-18T06:52:17;15.20;99.90
22491;DHT22;11412;50.802;4.350;2022-10-18T06:54:45;15.20;99.90
22491;DHT22;11412;50.802;4.350;2022-10-18T06:57:10;15.30;99.90
22491;DHT22;11412;50.802;4.350;2022-10-18T06:59:36;15.20;99.90
22491;DHT22;11412;50.802;4.350;2022-10-18T07:02:01;15.10;99.90
22491;DHT22;11412;50.802;4.350;2022-10-18T07:04:28;15.10;99.90
22491;DHT22;11412;50.802;4.350;2022-10-18T07:06:55;15.10;99.90
22491;DHT22;11412;50.802;4.350;2022-10-18T07:09:20;15.00;99.90
22491;DHT22;11412;50.802;4.350;2022-10-18T07:11:46;15.00;99.90
22491;DHT22;11412;50.802;4.350;2022-10-18T07:14:11;15.00;99.90
22491;DHT22;11412;50.802;4.350;2022-10-18T07:16:37;14.90;99.90
22491;DHT22;11412;50.802;4.350;2022-10-18T07:19:03;15.00;99.90
22491;DHT22;11412;50.802;4.350;2022-10-18T07:21:29;15.00;99.90
22491;DHT22;11412;50.802;4.350;2022-10-18T07:23:55;15.00;99.90
22491;DHT22;11412;50.802;4.350;2022-10-18T07:26:32;14.90;99.90
22491;DHT22;11412;50.802;4.350;2022-10-18T07:29:07;14.80;99.90
22491;DHT22;11412;50.802;4.350;2022-10-18T07:31:33;14.80;99.90
22491;DHT22;11412;50.802;4.350;2022-10-18T07:33:59;14.90;99.90
22491;DHT22;11412;50.802;4.350;2022-10-18T07:36:25;14.90;99.90
22491;DHT22;11412;50.802;4.350;2022-10-18T07:38:51;14.90;99.90
22491;DHT22;11412;50.802;4.350;2022-10-18T07:41:17;14.90;99.90
22491;DHT22;11412;50.802;4.350;2022-10-18T07:43:45;14.80;99.90
22491;DHT22;11412;50.802;4.350;2022-10-18T07:46:12;14.80;99.90
22491;DHT22;11412;50.802;4.350;2022-10-18T07:48:38;14.90;99.90
22491;DHT22;11412;50.802;4.350;2022-10-18T07:51:04;14.80;99.90
22491;DHT22;11412;50.802;4.350;2022-10-18T07:53:30;14.80;99.90
22491;DHT22;11412;50.802;4.350;2022-10-18T07:56:02;14.90;99.90
22491;DHT22;11412;50.802;4.350;2022-10-18T07:58:30;14.90;99.90
22491;DHT22;11412;50.802;4.350;2022-10-18T08:00:56;15.00;99.90
22491;DHT22;11412;50.802;4.350;2022-10-18T08:03:22;15.00;99.90
22491;DHT22;11412;50.802;4.350;2022-10-18T08:05:52;15.20;99.90
22491;DHT22;11412;50.802;4.350;2022-10-18T08:08:18;16.30;99.90
22491;DHT22;11412;50.802;4.350;2022-10-18T08:10:44;17.30;99.90
22491;DHT22;11412;50.802;4.350;2022-10-18T08:13:09;17.90;99.90
22491;DHT22;11412;50.802;4.350;2022-10-18T08:15:35;18.00;99.90
22491;DHT22;11412;50.802;4.350;2022-10-18T08:18:01;17.80;99.90
22491;DHT22;11412;50.802;4.350;2022-10-18T08:20:26;17.60;99.90
22491;DHT22;11412;50.802;4.350;2022-10-18T08:22:53;17.50;99.90
22491;DHT22;11412;50.802;4.350;2022-10-18T08:25:18;17.20;99.90
22491;DHT22;11412;50.802;4.350;2022-10-18T08:27:44;17.20;99.90
22491;DHT22;11412;50.802;4.350;2022-10-18T08:30:10;17.20;99.90
22491;DHT22;11412;50.802;4.350;2022-10-18T08:32:35;17.40;99.90
22491;DHT22;11412;50.802;4.350;2022-10-18T08:35:01;17.30;99.90
22491;DHT22;11412;50.802;4.350;2022-10-18T08:37:26;17.10;99.90
22491;DHT22;11412;50.802;4.350;2022-10-18T08:39:52;17.00;99.90
22491;DHT22;11412;50.802;4.350;2022-10-18T08:42:31;17.10;99.90
22491;DHT22;11412;50.802;4.350;2022-10-18T08:45:00;17.40;99.90
22491;DHT22;11412;50.802;4.350;2022-10-18T08:47:46;17.30;99.90
22491;DHT22;11412;50.802;4.350;2022-10-18T08:50:18;17.10;99.90
22491;DHT22;11412;50.802;4.350;2022-10-18T08:55:48;17.10;99.90
22491;DHT22;11412;50.802;4.350;2022-10-18T08:58:20;17.10;99.90
22491;DHT22;11412;50.802;4.350;2022-10-18T09:03:49;17.30;99.90
22491;DHT22;11412;50.802;4.350;2022-10-18T09:06:43;17.20;99.90
22491;DHT22;11412;50.802;4.350;2022-10-18T09:09:27;17.30;99.90
22491;DHT22;11412;50.802;4.350;2022-10-18T09:17:33;17.30;99.90
22491;DHT22;11412;50.802;4.350;2022-10-18T09:20:27;17.40;99.90
22491;DHT22;11412;50.802;4.350;2022-10-18T09:23:19;17.30;99.90
22491;DHT22;11412;50.802;4.350;2022-10-18T09:25:47;17.50;99.90
22491;DHT22;11412;50.802;4.350;2022-10-18T09:31:21;18.30;99.90
22491;DHT22;11412;50.802;4.350;2022-10-18T09:33:57;18.20;99.90
22491;DHT22;11412;50.802;4.350;2022-10-18T09:36:26;18.10;99.90
22491;DHT22;11412;50.802;4.350;2022-10-18T09:39:02;18.00;99.90
22491;DHT22;11412;50.802;4.350;2022-10-18T09:41:53;17.90;99.90
22491;DHT22;11412;50.802;4.350;2022-10-18T09:44:23;18.10;99.90
22491;DHT22;11412;50.802;4.350;2022-10-18T09:46:59;18.00;99.90
22491;DHT22;11412;50.802;4.350;2022-10-18T09:49:47;18.00;99.90
22491;DHT22;11412;50.802;4.350;2022-10-18T09:52:48;17.90;99.90
22491;DHT22;11412;50.802;4.350;2022-10-18T09:55:22;18.00;99.90
22491;DHT22;11412;50.802;4.350;2022-10-18T09:57:52;17.90;99.90
22491;DHT22;11412;50.802;4.350;2022-10-18T10:00:24;17.90;99.90
22491;DHT22;11412;50.802;4.350;2022-10-18T10:02:52;17.90;99.90
22491;DHT22;11412;50.802;4.350;2022-10-18T10:05:18;17.80;99.90
22491;DHT22;11412;50.802;4.350;2022-10-18T10:07:46;17.80;99.90
22491;DHT22;11412;50.802;4.350;2022-10-18T10:10:22;17.80;99.90
22491;DHT22;11412;50.802;4.350;2022-10-18T10:13:06;17.90;99.90
22491;DHT22;11412;50.802;4.350;2022-10-18T10:15:32;18.10;99.90
22491;DHT22;11412;50.802;4.350;2022-10-18T10:18:03;18.20;99.90
22491;DHT22;11412;50.802;4.350;2022-10-18T10:20:35;18.30;99.90
22491;DHT22;11412;50.802;4.350;2022-10-18T10:23:18;18.20;99.90
22491;DHT22;11412;50.802;4.350;2022-10-18T10:25:52;18.10;99.90
22491;DHT22;11412;50.802;4.350;2022-10-18T10:28:25;18.30;99.90
22491;DHT22;11412;50.802;4.350;2022-10-18T10:30:51;18.30;99.90
22491;DHT22;11412;50.802;4.350;2022-10-18T10:33:33;18.30;99.90
22491;DHT22;11412;50.802;4.350;2022-10-18T10:36:01;18.40;99.90
22491;DHT22;11412;50.802;4.350;2022-10-18T10:38:29;18.60;99.90
22491;DHT22;11412;50.802;4.350;2022-10-18T10:40:55;18.80;99.90
22491;DHT22;11412;50.802;4.350;2022-10-18T10:43:42;18.70;99.90
22491;DHT22;11412;50.802;4.350;2022-10-18T10:46:12;18.70;99.90
22491;DHT22;11412;50.802;4.350;2022-10-18T10:51:37;19.20;99.90
22491;DHT22;11412;50.802;4.350;2022-10-18T10:54:20;19.00;99.90
22491;DHT22;11412;50.802;4.350;2022-10-18T10:57:04;18.90;99.90
22491;DHT22;11412;50.802;4.350;2022-10-18T10:59:47;19.20;99.90
22491;DHT22;11412;50.802;4.350;2022-10-18T11:04:39;19.00;99.90
22491;DHT22;11412;50.802;4.350;2022-10-18T11:15:43;19.40;99.90
22491;DHT22;11412;50.802;4.350;2022-10-18T11:18:18;19.50;99.90
22491;DHT22;11412;50.802;4.350;2022-10-18T11:21:03;19.70;99.90
22491;DHT22;11412;50.802;4.350;2022-10-18T11:23:34;19.60;99.90
22491;DHT22;11412;50.802;4.350;2022-10-18T11:26:12;19.70;99.90
22491;DHT22;11412;50.802;4.350;2022-10-18T11:37:01;19.50;99.90
22491;DHT22;11412;50.802;4.350;2022-10-18T11:56:44;21.80;99.90
22491;DHT22;11412;50.802;4.350;2022-10-18T11:59:27;22.00;99.90
22491;DHT22;11412;50.802;4.350;2022-10-18T12:04:53;22.70;99.90
22491;DHT22;11412;50.802;4.350;2022-10-18T12:07:21;23.00;99.90
22491;DHT22;11412;50.802;4.350;2022-10-18T12:09:49;23.50;99.90
22491;DHT22;11412;50.802;4.350;2022-10-18T12:12:23;24.00;99.90
22491;DHT22;11412;50.802;4.350;2022-10-18T12:14:56;24.50;99.90
22491;DHT22;11412;50.802;4.350;2022-10-18T12:19:57;24.70;99.90
22491;DHT22;11412;50.802;4.350;2022-10-18T12:22:29;25.00;99.90
22491;DHT22;11412;50.802;4.350;2022-10-18T12:24:56;24.90;99.90
22491;DHT22;11412;50.802;4.350;2022-10-18T12:27:32;24.40;99.90
22491;DHT22;11412;50.802;4.350;2022-10-18T12:30:08;24.50;99.90
22491;DHT22;11412;50.802;4.350;2022-10-18T12:32:39;24.60;99.90
22491;DHT22;11412;50.802;4.350;2022-10-18T12:35:15;25.10;99.90
22491;DHT22;11412;50.802;4.350;2022-10-18T12:40:43;24.50;99.90
22491;DHT22;11412;50.802;4.350;2022-10-18T12:43:17;24.50;99.90
22491;DHT22;11412;50.802;4.350;2022-10-18T12:46:04;24.50;99.90
22491;DHT22;11412;50.802;4.350;2022-10-18T12:48:40;24.80;99.90
22491;DHT22;11412;50.802;4.350;2022-10-18T12:51:17;24.30;99.90
22491;DHT22;11412;50.802;4.350;2022-10-18T12:53:46;24.00;99.90
22491;DHT22;11412;50.802;4.350;2022-10-18T12:56:34;24.20;99.90
22491;DHT22;11412;50.802;4.350;2022-10-18T13:10:30;23.80;99.90
22491;DHT22;11412;50.802;4.350;2022-10-18T13:26:03;23.60;99.90
22491;DHT22;11412;50.802;4.350;2022-10-18T13:32:27;23.10;99.90
22491;DHT22;11412;50.802;4.350;2022-10-18T13:34:56;23.20;99.90
22491;DHT22;11412;50.802;4.350;2022-10-18T13:37:23;23.30;99.90
22491;DHT22;11412;50.802;4.350;2022-10-18T13:40:28;23.60;99.90
22491;DHT22;11412;50.802;4.350;2022-10-18T13:42:53;23.50;99.90
22491;DHT22;11412;50.802;4.350;2022-10-18T13:50:52;23.20;99.90
22491;DHT22;11412;50.802;4.350;2022-10-18T13:53:44;23.20;99.90
22491;DHT22;11412;50.802;4.350;2022-10-18T13:59:25;23.20;99.90
22491;DHT22;11412;50.802;4.350;2022-10-18T14:04:54;22.80;99.90
22491;DHT22;11412;50.802;4.350;2022-10-18T14:07:25;22.70;99.90
22491;DHT22;11412;50.802;4.350;2022-10-18T14:09:52;22.10;99.90
22491;DHT22;11412;50.802;4.350;2022-10-18T14:15:15;21.50;99.90
22491;DHT22;11412;50.802;4.350;2022-10-18T14:17:55;21.20;99.90
22491;DHT22;11412;50.802;4.350;2022-10-18T14:20:26;21.30;99.90
22491;DHT22;11412;50.802;4.350;2022-10-18T14:25:35;21.80;99.90
22491;DHT22;11412;50.802;4.350;2022-10-18T14:28:19;21.80;99.90
22491;DHT22;11412;50.802;4.350;2022-10-18T14:31:06;21.90;99.90
22491;DHT22;11412;50.802;4.350;2022-10-18T14:33:37;21.80;99.90
22491;DHT22;11412;50.802;4.350;2022-10-18T14:36:08;21.80;99.90
22491;DHT22;11412;50.802;4.350;2022-10-18T14:38:37;21.80;99.90
22491;DHT22;11412;50.802;4.350;2022-10-18T14:41:16;21.80;99.90
22491;DHT22;11412;50.802;4.350;2022-10-18T14:43:43;21.80;99.90
22491;DHT22;11412;50.802;4.350;2022-10-18T14:48:57;21.80;99.90
22491;DHT22;11412;50.802;4.350;2022-10-18T14:51:24;21.50;99.90
22491;DHT22;11412;50.802;4.350;2022-10-18T14:53:51;21.40;99.90
22491;DHT22;11412;50.802;4.350;2022-10-18T14:56:25;21.30;99.90
22491;DHT22;11412;50.802;4.350;2022-10-18T14:58:54;21.40;99.90
22491;DHT22;11412;50.802;4.350;2022-10-18T15:01:29;21.30;99.90
22491;DHT22;11412;50.802;4.350;2022-10-18T15:04:08;21.20;99.90
22491;DHT22;11412;50.802;4.350;2022-10-18T15:06:34;21.10;99.90
22491;DHT22;11412;50.802;4.350;2022-10-18T15:09:02;21.00;99.90
22491;DHT22;11412;50.802;4.350;2022-10-18T15:11:29;21.00;99.90
22491;DHT22;11412;50.802;4.350;2022-10-18T15:14:01;20.90;99.90
22491;DHT22;11412;50.802;4.350;2022-10-18T15:16:31;20.70;99.90
22491;DHT22;11412;50.802;4.350;2022-10-18T15:19:03;20.70;99.90
22491;DHT22;11412;50.802;4.350;2022-10-18T15:21:30;20.50;99.90
22491;DHT22;11412;50.802;4.350;2022-10-18T15:26:50;20.50;99.90
22491;DHT22;11412;50.802;4.350;2022-10-18T15:29:18;20.30;99.90
22491;DHT22;11412;50.802;4.350;2022-10-18T15:31:48;20.20;99.90
22491;DHT22;11412;50.802;4.350;2022-10-18T15:34:21;20.10;99.90
22491;DHT22;11412;50.802;4.350;2022-10-18T15:36:48;19.90;99.90
22491;DHT22;11412;50.802;4.350;2022-10-18T15:41:46;19.70;99.90
22491;DHT22;11412;50.802;4.350;2022-10-18T15:44:36;19.70;99.90
22491;DHT22;11412;50.802;4.350;2022-10-18T15:49:51;19.70;99.90
22491;DHT22;11412;50.802;4.350;2022-10-18T15:52:41;19.50;99.90
22491;DHT22;11412;50.802;4.350;2022-10-18T15:58:08;19.10;99.90
22491;DHT22;11412;50.802;4.350;2022-10-18T16:00:35;19.00;99.90
22491;DHT22;11412;50.802;4.350;2022-10-18T16:03:01;18.80;99.90
22491;DHT22;11412;50.802;4.350;2022-10-18T16:05:27;18.70;99.90
22491;DHT22;11412;50.802;4.350;2022-10-18T16:07:53;18.50;99.90
22491;DHT22;11412;50.802;4.350;2022-10-18T16:10:18;18.50;99.90
22491;DHT22;11412;50.802;4.350;2022-10-18T16:12:44;18.40;99.90
22491;DHT22;11412;50.802;4.350;2022-10-18T16:15:10;18.30;99.90
22491;DHT22;11412;50.802;4.350;2022-10-18T16:17:36;18.10;99.90
22491;DHT22;11412;50.802;4.350;2022-10-18T16:20:01;17.90;99.90
22491;DHT22;11412;50.802;4.350;2022-10-18T16:22:27;17.90;99.90
22491;DHT22;11412;50.802;4.350;2022-10-18T16:24:53;17.70;99.90
22491;DHT22;11412;50.802;4.350;2022-10-18T16:27:18;17.60;99.90
22491;DHT22;11412;50.802;4.350;2022-10-18T16:29:45;17.50;99.90
22491;DHT22;11412;50.802;4.350;2022-10-18T16:32:11;17.30;99.90
22491;DHT22;11412;50.802;4.350;2022-10-18T16:34:36;17.20;99.90
22491;DHT22;11412;50.802;4.350;2022-10-18T16:37:02;17.10;99.90
22491;DHT22;11412;50.802;4.350;2022-10-18T16:39:27;17.00;99.90
22491;DHT22;11412;50.802;4.350;2022-10-18T16:41:59;16.90;99.90
22491;DHT22;11412;50.802;4.350;2022-10-18T16:44:24;16.80;99.90
22491;DHT22;11412;50.802;4.350;2022-10-18T16:46:50;16.70;99.90
22491;DHT22;11412;50.802;4.350;2022-10-18T16:49:23;16.70;99.90
22491;DHT22;11412;50.802;4.350;2022-10-18T16:51:50;16.60;99.90
22491;DHT22;11412;50.802;4.350;2022-10-18T16:54:16;16.50;99.90
22491;DHT22;11412;50.802;4.350;2022-10-18T16:56:41;16.40;99.90
22491;DHT22;11412;50.802;4.350;2022-10-18T16:59:19;16.30;99.90
22491;DHT22;11412;50.802;4.350;2022-10-18T17:01:45;16.30;99.90
22491;DHT22;11412;50.802;4.350;2022-10-18T17:04:11;16.20;99.90
22491;DHT22;11412;50.802;4.350;2022-10-18T17:06:37;16.10;99.90
22491;DHT22;11412;50.802;4.350;2022-10-18T17:09:02;16.10;99.90
22491;DHT22;11412;50.802;4.350;2022-10-18T17:11:28;16.00;99.90
22491;DHT22;11412;50.802;4.350;2022-10-18T17:13:54;15.90;99.90
22491;DHT22;11412;50.802;4.350;2022-10-18T17:16:27;15.90;99.90
22491;DHT22;11412;50.802;4.350;2022-10-18T17:18:54;15.90;99.90
22491;DHT22;11412;50.802;4.350;2022-10-18T17:21:21;15.80;99.90
22491;DHT22;11412;50.802;4.350;2022-10-18T17:23:47;15.70;99.90
22491;DHT22;11412;50.802;4.350;2022-10-18T17:26:18;15.70;99.90
22491;DHT22;11412;50.802;4.350;2022-10-18T17:28:45;15.90;99.90
22491;DHT22;11412;50.802;4.350;2022-10-18T17:31:14;15.80;99.90
22491;DHT22;11412;50.802;4.350;2022-10-18T17:33:40;15.80;99.90
22491;DHT22;11412;50.802;4.350;2022-10-18T17:36:05;15.70;99.90
22491;DHT22;11412;50.802;4.350;2022-10-18T17:38:31;15.60;99.90
22491;DHT22;11412;50.802;4.350;2022-10-18T17:40:57;15.60;99.90
22491;DHT22;11412;50.802;4.350;2022-10-18T17:43:22;15.50;99.90
22491;DHT22;11412;50.802;4.350;2022-10-18T17:45:52;15.40;99.90
22491;DHT22;11412;50.802;4.350;2022-10-18T17:48:17;15.40;99.90
22491;DHT22;11412;50.802;4.350;2022-10-18T17:50:43;15.30;99.90
22491;DHT22;11412;50.802;4.350;2022-10-18T17:53:09;15.30;99.90
22491;DHT22;11412;50.802;4.350;2022-10-18T17:55:37;15.20;99.90
22491;DHT22;11412;50.802;4.350;2022-10-18T17:58:03;15.20;99.90
22491;DHT22;11412;50.802;4.350;2022-10-18T18:00:29;15.20;99.90
22491;DHT22;11412;50.802;4.350;2022-10-18T18:03:00;15.10;99.90
22491;DHT22;11412;50.802;4.350;2022-10-18T18:05:31;15.10;99.90